createdAt,value
2018-08-24T00:00:12.630Z,22.70
2018-08-24T00:02:39.941Z,22.40
2018-08-24T00:05:07.886Z,22.30
2018-08-24T00:07:35.213Z,22.40
2018-08-24T00:10:02.504Z,22.40
2018-08-24T00:12:29.822Z,22.50
2018-08-24T00:14:57.143Z,22.60
2018-08-24T00:17:24.427Z,22.70
2018-08-24T00:19:51.724Z,22.80
2018-08-24T00:22:19.050Z,22.90
2018-08-24T00:24:46.366Z,22.90
2018-08-24T00:27:13.791Z,22.80
2018-08-24T00:29:41.093Z,22.80
2018-08-24T00:32:08.426Z,22.80
2018-08-24T00:34:35.726Z,22.70
2018-08-24T00:37:03.058Z,22.70
2018-08-24T00:39:30.386Z,22.80
2018-08-24T00:41:57.685Z,22.80
2018-08-24T00:44:25.018Z,22.90
2018-08-24T00:46:52.298Z,22.80
2018-08-24T00:49:20.023Z,22.80
2018-08-24T00:51:47.336Z,22.60
2018-08-24T00:54:14.650Z,22.40
2018-08-24T00:56:41.955Z,22.30
2018-08-24T00:59:09.324Z,22.10
2018-08-24T01:01:36.622Z,21.90
2018-08-24T01:04:03.931Z,21.70
2018-08-24T01:06:31.260Z,21.80
2018-08-24T01:08:58.558Z,21.80
2018-08-24T01:11:25.878Z,21.90
2018-08-24T01:13:53.188Z,21.80
2018-08-24T01:16:20.498Z,21.80
2018-08-24T01:18:47.786Z,21.80
2018-08-24T01:21:15.155Z,21.80
2018-08-24T01:23:42.442Z,21.80
2018-08-24T01:26:09.756Z,21.90
2018-08-24T01:28:37.066Z,22.00
2018-08-24T01:31:04.365Z,22.20
2018-08-24T01:33:31.731Z,22.40
2018-08-24T01:35:59.056Z,22.40
2018-08-24T01:38:26.369Z,22.40
2018-08-24T01:40:53.678Z,22.40
2018-08-24T01:43:20.990Z,22.40
2018-08-24T01:45:48.584Z,22.30
2018-08-24T01:48:15.906Z,22.30
2018-08-24T01:50:43.236Z,22.30
2018-08-24T01:53:10.540Z,22.40
2018-08-24T01:55:37.846Z,22.30
2018-08-24T01:58:05.212Z,22.30
2018-08-24T02:00:32.524Z,22.30
2018-08-24T02:02:59.842Z,22.30
2018-08-24T02:05:27.151Z,22.30
2018-08-24T02:07:54.452Z,22.30
2018-08-24T02:10:21.742Z,22.20
2018-08-24T02:12:49.058Z,22.20
2018-08-24T02:15:16.356Z,22.20
2018-08-24T02:17:43.690Z,22.10
2018-08-24T02:20:11.007Z,22.10
2018-08-24T02:22:38.336Z,22.00
2018-08-24T02:25:05.654Z,22.00
2018-08-24T02:27:32.967Z,22.00
2018-08-24T02:30:00.301Z,22.00
2018-08-24T02:32:27.605Z,21.70
2018-08-24T02:34:54.908Z,21.30
2018-08-24T02:37:22.217Z,21.00
2018-08-24T02:39:49.518Z,20.70
2018-08-24T02:42:16.821Z,20.70
2018-08-24T02:44:44.128Z,20.70
2018-08-24T02:47:11.443Z,20.60
2018-08-24T02:49:38.766Z,20.50
2018-08-24T02:52:06.083Z,20.40
2018-08-24T02:54:33.432Z,20.30
2018-08-24T02:57:00.751Z,20.20
2018-08-24T02:59:28.059Z,20.20
2018-08-24T03:01:55.435Z,20.20
2018-08-24T03:04:22.831Z,20.30
2018-08-24T03:06:50.145Z,20.60
2018-08-24T03:09:17.454Z,20.80
2018-08-24T03:11:44.784Z,20.90
2018-08-24T03:14:12.118Z,20.90
2018-08-24T03:16:39.511Z,20.80
2018-08-24T03:19:06.816Z,20.90
2018-08-24T03:21:34.124Z,20.90
2018-08-24T03:24:01.454Z,20.90
2018-08-24T03:26:28.776Z,21.00
2018-08-24T03:28:56.096Z,21.10
2018-08-24T03:31:23.420Z,21.10
2018-08-24T03:33:50.733Z,21.00
2018-08-24T03:36:18.044Z,20.70
2018-08-24T03:38:45.352Z,20.50
2018-08-24T03:41:12.656Z,20.40
2018-08-24T03:43:40.320Z,20.30
2018-08-24T03:46:07.640Z,20.10
2018-08-24T03:48:34.973Z,20.10
2018-08-24T03:51:02.430Z,20.10
2018-08-24T03:53:29.772Z,20.30
2018-08-24T03:55:57.089Z,20.40
2018-08-24T03:58:24.399Z,20.40
2018-08-24T04:00:51.715Z,20.40
2018-08-24T04:03:19.015Z,20.50
2018-08-24T04:05:46.347Z,20.60
2018-08-24T04:08:13.650Z,20.70
2018-08-24T04:10:40.968Z,20.80
2018-08-24T04:13:08.275Z,20.90
2018-08-24T04:15:35.607Z,20.90
2018-08-24T04:18:02.932Z,20.90
2018-08-24T04:20:30.253Z,20.90
2018-08-24T04:22:57.571Z,20.90
2018-08-24T04:25:24.895Z,20.90
2018-08-24T04:27:52.187Z,20.90
2018-08-24T04:30:19.513Z,20.80
2018-08-24T04:32:46.835Z,20.70
2018-08-24T04:35:14.155Z,20.80
2018-08-24T04:37:41.511Z,20.80
2018-08-24T04:40:08.876Z,20.70
2018-08-24T04:42:36.185Z,20.60
2018-08-24T04:45:03.643Z,20.30
2018-08-24T04:47:30.970Z,20.10
2018-08-24T04:49:58.303Z,19.90
2018-08-24T04:52:25.648Z,19.80
2018-08-24T04:54:52.990Z,19.80
2018-08-24T04:57:20.279Z,19.70
2018-08-24T04:59:47.596Z,19.70
2018-08-24T05:02:14.975Z,19.70
2018-08-24T05:04:42.299Z,19.70
2018-08-24T05:07:09.622Z,19.90
2018-08-24T05:09:36.955Z,19.90
2018-08-24T05:12:04.682Z,19.70
2018-08-24T05:14:32.024Z,19.60
2018-08-24T05:16:59.364Z,19.70
2018-08-24T05:19:26.681Z,19.70
2018-08-24T05:21:54.027Z,19.70
2018-08-24T05:24:21.317Z,19.70
2018-08-24T05:26:48.689Z,19.70
2018-08-24T05:29:15.993Z,19.80
2018-08-24T05:31:43.508Z,20.00
2018-08-24T05:34:10.838Z,20.10
2018-08-24T05:36:38.218Z,20.20
2018-08-24T05:39:06.601Z,20.20
2018-08-24T05:41:34.061Z,20.10
2018-08-24T05:44:01.289Z,20.00
2018-08-24T05:46:28.633Z,19.70
2018-08-24T05:48:56.010Z,19.60
2018-08-24T05:51:23.263Z,19.40
2018-08-24T05:53:50.566Z,19.50
2018-08-24T05:56:17.891Z,19.60
2018-08-24T05:58:45.203Z,19.60
2018-08-24T06:01:12.546Z,19.70
2018-08-24T06:03:39.850Z,19.70
2018-08-24T06:06:07.174Z,19.70
2018-08-24T06:08:34.483Z,19.80
2018-08-24T06:11:01.791Z,19.90
2018-08-24T06:13:29.099Z,19.90
2018-08-24T06:15:56.440Z,19.80
2018-08-24T06:18:23.747Z,19.70
2018-08-24T06:20:51.287Z,19.80
2018-08-24T06:23:18.715Z,20.00
2018-08-24T06:25:46.091Z,20.00
2018-08-24T06:28:13.382Z,19.70
2018-08-24T06:30:40.884Z,19.50
2018-08-24T06:33:08.238Z,19.50
2018-08-24T06:35:35.560Z,19.60
2018-08-24T06:38:02.903Z,19.80
2018-08-24T06:40:30.226Z,19.80
2018-08-24T06:42:57.578Z,19.80
2018-08-24T06:45:24.855Z,19.90
2018-08-24T06:47:52.180Z,20.00
2018-08-24T06:50:19.467Z,20.10
2018-08-24T06:52:46.813Z,20.10
2018-08-24T06:55:14.157Z,20.10
2018-08-24T06:57:41.575Z,20.20
2018-08-24T07:00:09.043Z,20.30
2018-08-24T07:02:36.336Z,20.50
2018-08-24T07:05:03.661Z,20.50
2018-08-24T07:07:30.972Z,20.10
2018-08-24T07:09:58.331Z,20.10
2018-08-24T07:12:25.636Z,20.10
2018-08-24T07:14:52.961Z,20.00
2018-08-24T07:17:20.279Z,19.90
2018-08-24T07:19:47.879Z,19.80
2018-08-24T07:22:15.183Z,19.70
2018-08-24T07:24:42.500Z,19.80
2018-08-24T07:27:09.824Z,19.80
2018-08-24T07:29:37.181Z,19.90
2018-08-24T07:32:04.544Z,19.90
2018-08-24T07:34:31.911Z,20.00
2018-08-24T07:36:59.266Z,20.00
2018-08-24T07:39:26.585Z,20.10
2018-08-24T07:41:53.993Z,20.00
2018-08-24T07:44:21.217Z,20.00
2018-08-24T07:46:48.527Z,20.00
2018-08-24T07:49:15.836Z,19.80
2018-08-24T07:51:43.180Z,19.80
2018-08-24T07:54:10.570Z,19.90
2018-08-24T07:56:37.908Z,20.00
2018-08-24T07:59:05.206Z,20.00
2018-08-24T08:01:32.536Z,20.10
2018-08-24T08:03:59.854Z,20.10
2018-08-24T08:06:27.237Z,20.10
2018-08-24T08:08:54.524Z,19.80
2018-08-24T08:11:21.855Z,19.70
2018-08-24T08:13:49.184Z,19.70
2018-08-24T08:16:16.535Z,19.80
2018-08-24T08:18:43.877Z,19.80
2018-08-24T08:21:11.199Z,19.60
2018-08-24T08:23:38.592Z,19.60
2018-08-24T08:26:06.065Z,19.60
2018-08-24T08:28:33.458Z,19.80
2018-08-24T08:31:01.144Z,19.90
2018-08-24T08:33:28.488Z,19.80
2018-08-24T08:35:55.838Z,19.70
2018-08-24T08:38:23.172Z,19.70
2018-08-24T08:40:50.541Z,19.60
2018-08-24T08:43:17.841Z,19.50
2018-08-24T08:45:45.195Z,19.30
2018-08-24T08:48:12.542Z,19.10
2018-08-24T08:50:39.929Z,18.90
2018-08-24T08:53:07.299Z,18.80
2018-08-24T08:55:34.639Z,18.70
2018-08-24T08:58:01.957Z,18.70
2018-08-24T09:00:29.311Z,18.80
2018-08-24T09:02:56.636Z,18.80
2018-08-24T09:05:23.975Z,18.80
2018-08-24T09:07:51.320Z,19.00
2018-08-24T09:10:18.639Z,19.10
2018-08-24T09:15:30.619Z,19.20
2018-08-24T09:17:57.923Z,19.40
2018-08-24T09:20:25.253Z,19.60
2018-08-24T09:22:52.560Z,20.00
2018-08-24T09:25:19.926Z,20.40
2018-08-24T09:27:47.196Z,20.60
2018-08-24T09:30:14.525Z,20.80
2018-08-24T09:32:41.944Z,20.90
2018-08-24T09:35:09.260Z,20.90
2018-08-24T09:37:36.576Z,20.90
2018-08-24T09:40:03.919Z,20.80
2018-08-24T09:42:31.220Z,20.70
2018-08-24T09:44:58.537Z,20.70
2018-08-24T09:47:25.847Z,20.60
2018-08-24T09:49:53.208Z,20.60
2018-08-24T09:52:20.519Z,20.60
2018-08-24T09:54:47.887Z,20.70
2018-08-24T09:57:15.256Z,20.60
2018-08-24T09:59:42.560Z,20.80
2018-08-24T10:02:09.981Z,20.90
2018-08-24T10:04:37.304Z,21.00
2018-08-24T10:07:04.667Z,21.10
2018-08-24T10:09:32.009Z,21.10
2018-08-24T10:11:59.326Z,21.10
2018-08-24T10:14:26.684Z,21.20
2018-08-24T10:16:53.975Z,21.30
2018-08-24T10:19:21.294Z,21.40
2018-08-24T10:21:48.648Z,21.30
2018-08-24T10:24:16.154Z,21.30
2018-08-24T10:26:43.446Z,21.30
2018-08-24T10:29:10.934Z,21.30
2018-08-24T10:31:39.116Z,21.40
2018-08-24T10:34:06.428Z,21.60
2018-08-24T10:36:33.740Z,21.70
2018-08-24T10:39:01.074Z,21.70
2018-08-24T10:41:28.367Z,21.70
2018-08-24T10:43:55.665Z,21.70
2018-08-24T10:46:23.008Z,21.70
2018-08-24T10:48:50.292Z,21.80
2018-08-24T10:51:17.645Z,21.90
2018-08-24T10:53:44.964Z,22.10
2018-08-24T10:56:12.444Z,22.30
2018-08-24T10:58:39.643Z,22.50
2018-08-24T11:01:06.938Z,22.50
2018-08-24T11:03:34.292Z,22.60
2018-08-24T11:06:01.832Z,22.70
2018-08-24T11:08:29.187Z,22.80
2018-08-24T11:10:56.507Z,23.00
2018-08-24T11:13:23.828Z,23.10
2018-08-24T11:15:51.180Z,23.20
2018-08-24T11:18:18.588Z,23.10
2018-08-24T11:20:45.932Z,23.10
2018-08-24T11:23:13.339Z,23.10
2018-08-24T11:25:40.708Z,23.10
2018-08-24T11:28:08.143Z,23.10
2018-08-24T11:30:35.509Z,23.10
2018-08-24T11:33:02.841Z,23.20
2018-08-24T11:35:30.195Z,23.30
2018-08-24T11:37:57.561Z,23.50
2018-08-24T11:40:24.941Z,23.60
2018-08-24T11:42:52.276Z,23.50
2018-08-24T11:45:19.623Z,23.50
2018-08-24T11:47:47.012Z,23.50
2018-08-24T11:50:14.376Z,23.60
2018-08-24T11:52:41.762Z,23.70
2018-08-24T11:55:09.152Z,23.80
2018-08-24T11:57:36.523Z,24.00
2018-08-24T12:00:04.081Z,24.20
2018-08-24T12:02:31.469Z,24.20
2018-08-24T12:04:58.774Z,24.10
2018-08-24T12:07:26.179Z,24.20
2018-08-24T12:09:53.484Z,24.20
2018-08-24T12:12:20.811Z,23.90
2018-08-24T12:14:48.158Z,23.80
2018-08-24T12:17:15.444Z,23.80
2018-08-24T12:19:42.796Z,23.70
2018-08-24T12:22:10.166Z,23.70
2018-08-24T12:24:37.507Z,23.70
2018-08-24T12:27:04.846Z,23.60
2018-08-24T12:29:32.176Z,23.60
2018-08-24T12:32:00.504Z,23.60
2018-08-24T12:34:27.923Z,23.70
2018-08-24T12:36:55.211Z,23.70
2018-08-24T12:39:22.524Z,23.50
2018-08-24T12:41:49.896Z,23.40
2018-08-24T12:44:17.218Z,23.40
2018-08-24T12:46:44.580Z,23.50
2018-08-24T12:49:11.923Z,23.60
2018-08-24T12:51:39.315Z,23.80
2018-08-24T12:54:06.855Z,24.00
2018-08-24T12:56:34.185Z,24.20
2018-08-24T12:59:01.503Z,24.40
2018-08-24T13:01:28.840Z,24.30
2018-08-24T13:03:56.160Z,24.20
2018-08-24T13:06:23.485Z,24.40
2018-08-24T13:08:50.774Z,24.60
2018-08-24T13:11:18.103Z,24.70
2018-08-24T13:13:45.406Z,24.80
2018-08-24T13:16:12.722Z,24.90
2018-08-24T13:18:40.082Z,25.00
2018-08-24T13:21:07.436Z,25.20
2018-08-24T13:23:34.770Z,25.20
2018-08-24T13:26:02.109Z,25.10
2018-08-24T13:28:29.498Z,24.90
2018-08-24T13:30:56.831Z,24.80
2018-08-24T13:33:24.129Z,24.60
2018-08-24T13:35:51.470Z,24.10
2018-08-24T13:38:18.812Z,23.50
2018-08-24T13:40:46.176Z,23.00
2018-08-24T13:43:13.563Z,22.90
2018-08-24T13:45:40.902Z,23.00
2018-08-24T13:48:08.319Z,23.10
2018-08-24T13:50:35.669Z,23.10
2018-08-24T13:53:03.104Z,23.20
2018-08-24T13:55:30.572Z,23.20
2018-08-24T13:57:58.228Z,23.30
2018-08-24T14:00:25.667Z,23.30
2018-08-24T14:02:52.999Z,23.50
2018-08-24T14:05:20.407Z,23.50
2018-08-24T14:07:47.718Z,23.60
2018-08-24T14:10:15.070Z,23.60
2018-08-24T14:12:42.442Z,23.70
2018-08-24T14:15:09.781Z,23.80
2018-08-24T14:17:37.167Z,24.10
2018-08-24T14:20:04.608Z,24.40
2018-08-24T14:22:31.983Z,24.60
2018-08-24T14:24:59.333Z,24.30
2018-08-24T14:27:26.645Z,24.10
2018-08-24T14:29:53.975Z,24.20
2018-08-24T14:32:21.321Z,24.30
2018-08-24T14:34:48.662Z,24.40
2018-08-24T14:37:15.972Z,24.10
2018-08-24T14:39:43.356Z,23.90
2018-08-24T14:42:10.811Z,23.90
2018-08-24T14:44:38.178Z,23.90
2018-08-24T14:47:05.512Z,23.70
2018-08-24T14:49:32.840Z,23.90
2018-08-24T14:54:44.603Z,23.70
2018-08-24T14:57:12.084Z,23.60
2018-08-24T14:59:39.572Z,23.60
2018-08-24T15:02:06.930Z,23.50
2018-08-24T15:04:34.466Z,23.40
2018-08-24T15:07:01.657Z,23.30
2018-08-24T15:09:29.042Z,23.30
2018-08-24T15:11:56.362Z,23.20
2018-08-24T15:14:23.753Z,23.00
2018-08-24T15:16:51.109Z,22.80
2018-08-24T15:19:18.365Z,22.70
2018-08-24T15:21:45.752Z,22.70
2018-08-24T15:24:13.068Z,22.70
2018-08-24T15:26:40.436Z,22.80
2018-08-24T15:29:07.779Z,23.10
2018-08-24T15:31:35.377Z,23.10
2018-08-24T15:34:02.708Z,22.90
2018-08-24T15:36:30.012Z,22.70
2018-08-24T15:38:57.347Z,22.60
2018-08-24T15:41:24.618Z,22.60
2018-08-24T15:43:51.920Z,22.80
2018-08-24T15:46:19.347Z,23.00
2018-08-24T15:48:46.579Z,22.90
2018-08-24T15:51:14.007Z,23.00
2018-08-24T15:53:41.389Z,23.00
2018-08-24T15:56:08.697Z,23.10
2018-08-24T15:58:35.999Z,23.00
2018-08-24T16:01:03.352Z,23.00
2018-08-24T16:03:30.690Z,23.00
2018-08-24T16:05:58.033Z,23.00
2018-08-24T16:08:25.318Z,23.00
2018-08-24T16:10:52.608Z,22.90
2018-08-24T16:13:19.938Z,22.70
2018-08-24T16:15:47.264Z,22.60
2018-08-24T16:18:14.622Z,22.60
2018-08-24T16:20:41.958Z,22.70
2018-08-24T16:23:09.459Z,22.80
2018-08-24T16:25:36.793Z,23.00
2018-08-24T16:28:04.128Z,23.00
2018-08-24T16:30:31.418Z,22.80
2018-08-24T16:32:58.766Z,22.90
2018-08-24T16:35:26.062Z,23.00
2018-08-24T16:37:53.546Z,22.80
2018-08-24T16:40:20.883Z,22.80
2018-08-24T16:42:48.295Z,22.70
2018-08-24T16:45:15.606Z,22.80
2018-08-24T16:47:42.952Z,22.70
2018-08-24T16:50:10.258Z,22.50
2018-08-24T16:52:37.665Z,22.50
2018-08-24T16:55:04.951Z,22.70
2018-08-24T16:57:32.365Z,22.80
2018-08-24T16:59:59.658Z,22.80
2018-08-24T17:02:27.077Z,22.90
2018-08-24T17:04:54.381Z,22.90
2018-08-24T17:07:21.725Z,22.90
2018-08-24T17:09:49.071Z,22.90
2018-08-24T17:12:16.406Z,22.70
2018-08-24T17:14:43.720Z,22.60
2018-08-24T17:17:11.081Z,22.60
2018-08-24T17:19:38.510Z,22.60
2018-08-24T17:22:05.936Z,22.50
2018-08-24T17:24:33.417Z,22.30
2018-08-24T17:27:00.778Z,22.30
2018-08-24T17:29:28.148Z,22.40
2018-08-24T17:31:55.502Z,22.20
2018-08-24T17:34:22.825Z,22.10
2018-08-24T17:36:50.190Z,22.20
2018-08-24T17:39:17.637Z,22.20
2018-08-24T17:41:45.022Z,22.20
2018-08-24T17:44:12.347Z,22.30
2018-08-24T17:46:39.727Z,22.20
2018-08-24T17:49:07.134Z,22.10
2018-08-24T17:51:34.717Z,21.90
2018-08-24T17:54:02.087Z,21.90
2018-08-24T17:56:29.407Z,21.70
2018-08-24T17:58:56.798Z,21.70
2018-08-24T18:01:24.155Z,21.70
2018-08-24T18:03:51.465Z,21.60
2018-08-24T18:06:18.825Z,21.70
2018-08-24T18:08:46.178Z,21.70
2018-08-24T18:11:13.538Z,21.60
2018-08-24T18:13:40.915Z,21.70
2018-08-24T18:16:08.242Z,21.80
2018-08-24T18:18:35.678Z,21.80
2018-08-24T18:21:03.048Z,21.60
2018-08-24T18:23:31.274Z,21.60
2018-08-24T18:25:58.634Z,21.60
2018-08-24T18:28:25.967Z,21.50
2018-08-24T18:30:53.338Z,21.50
2018-08-24T18:33:20.650Z,21.50
2018-08-24T18:35:48.041Z,21.60
2018-08-24T18:38:15.349Z,21.50
2018-08-24T18:40:42.684Z,21.20
2018-08-24T18:43:09.955Z,21.10
2018-08-24T18:45:37.250Z,20.90
2018-08-24T18:48:04.777Z,21.00
2018-08-24T18:50:32.100Z,21.10
2018-08-24T18:52:59.588Z,21.10
2018-08-24T18:55:26.954Z,21.30
2018-08-24T18:57:54.525Z,21.30
2018-08-24T19:00:21.835Z,21.30
2018-08-24T19:02:49.139Z,21.20
2018-08-24T19:05:16.520Z,21.10
2018-08-24T19:07:43.814Z,21.10
2018-08-24T19:10:11.148Z,21.20
2018-08-24T19:12:38.494Z,21.30
2018-08-24T19:15:05.848Z,21.30
2018-08-24T19:17:33.236Z,21.20
2018-08-24T19:20:00.543Z,21.10
2018-08-24T19:22:27.872Z,21.10
2018-08-24T19:24:55.302Z,21.10
2018-08-24T19:27:22.647Z,21.00
2018-08-24T19:29:49.994Z,20.90
2018-08-24T19:32:17.380Z,20.90
2018-08-24T19:34:44.705Z,20.80
2018-08-24T19:37:12.041Z,20.60
2018-08-24T19:39:39.381Z,20.60
2018-08-24T19:42:06.765Z,20.60
2018-08-24T19:44:34.236Z,20.70
2018-08-24T19:47:01.628Z,20.80
2018-08-24T19:49:29.055Z,20.70
2018-08-24T19:51:56.301Z,20.60
2018-08-24T19:54:23.642Z,20.60
2018-08-24T19:56:50.979Z,20.60
2018-08-24T19:59:18.530Z,20.80
2018-08-24T20:01:45.865Z,20.80
2018-08-24T20:04:13.202Z,20.80
2018-08-24T20:06:40.592Z,20.70
2018-08-24T20:09:10.463Z,20.30
2018-08-24T20:11:37.787Z,20.10
2018-08-24T20:14:05.124Z,20.20
2018-08-24T20:16:32.439Z,20.10
2018-08-24T20:18:59.729Z,19.90
2018-08-24T20:21:27.025Z,19.90
2018-08-24T20:23:54.315Z,20.10
2018-08-24T20:26:21.632Z,20.00
2018-08-24T20:28:48.908Z,20.10
2018-08-24T20:31:16.212Z,20.00
2018-08-24T20:33:43.561Z,19.80
2018-08-24T20:36:10.839Z,19.90
2018-08-24T20:38:38.199Z,19.90
2018-08-24T20:41:05.518Z,19.90
2018-08-24T20:43:32.844Z,19.80
2018-08-24T20:46:00.163Z,19.90
2018-08-24T20:48:27.483Z,19.80
2018-08-24T20:50:54.778Z,19.60
2018-08-24T20:53:22.090Z,19.60
2018-08-24T20:55:49.387Z,19.60
2018-08-24T20:58:16.679Z,19.40
2018-08-24T21:00:43.987Z,19.50
2018-08-24T21:03:11.353Z,19.50
2018-08-24T21:05:38.676Z,19.60
2018-08-24T21:08:06.046Z,19.60
2018-08-24T21:10:33.382Z,19.60
2018-08-24T21:13:00.678Z,19.50
2018-08-24T21:15:28.017Z,19.40
2018-08-24T21:17:55.303Z,19.30
2018-08-24T21:20:22.603Z,19.30
2018-08-24T21:22:49.976Z,19.20
2018-08-24T21:25:17.266Z,19.20
2018-08-24T21:27:44.566Z,19.20
2018-08-24T21:30:11.966Z,19.20
2018-08-24T21:32:39.191Z,19.10
2018-08-24T21:35:06.535Z,19.00
2018-08-24T21:37:33.855Z,19.20
2018-08-24T21:40:01.252Z,19.30
2018-08-24T21:42:28.567Z,19.40
2018-08-24T21:44:55.959Z,19.40
2018-08-24T21:47:23.265Z,19.40
2018-08-24T21:49:50.584Z,19.40
2018-08-24T21:52:17.952Z,19.40
2018-08-24T21:54:45.242Z,19.40
2018-08-24T21:57:12.581Z,19.20
2018-08-24T21:59:39.895Z,19.00
2018-08-24T22:02:07.259Z,19.00
2018-08-24T22:04:34.587Z,19.00
2018-08-24T22:07:02.039Z,19.00
2018-08-24T22:09:29.370Z,18.90
2018-08-24T22:11:56.657Z,18.80
2018-08-24T22:14:23.982Z,18.90
2018-08-24T22:16:51.302Z,18.90
2018-08-24T22:19:18.606Z,18.80
2018-08-24T22:21:45.962Z,18.70
2018-08-24T22:24:13.289Z,18.60
2018-08-24T22:26:40.688Z,18.50
2018-08-24T22:29:08.068Z,18.50
2018-08-24T22:31:35.392Z,18.50
2018-08-24T22:34:02.708Z,18.50
2018-08-24T22:36:29.995Z,18.50
2018-08-24T22:38:57.334Z,18.50
2018-08-24T22:41:24.724Z,18.50
2018-08-24T22:43:52.178Z,18.40
2018-08-24T22:46:19.817Z,18.30
2018-08-24T22:48:47.120Z,18.20
2018-08-24T22:51:14.471Z,18.20
2018-08-24T22:53:41.789Z,18.20
2018-08-24T22:56:09.102Z,18.30
2018-08-24T22:58:36.504Z,18.50
2018-08-24T23:01:03.813Z,18.40
2018-08-24T23:03:31.125Z,18.40
2018-08-24T23:05:58.445Z,18.30
2018-08-24T23:08:25.740Z,18.20
2018-08-24T23:10:53.092Z,18.10
2018-08-24T23:13:20.491Z,17.90
2018-08-24T23:15:47.962Z,17.70
2018-08-24T23:18:15.294Z,17.70
2018-08-24T23:20:42.617Z,17.70
2018-08-24T23:23:10.162Z,17.60
2018-08-24T23:25:37.506Z,17.60
2018-08-24T23:28:05.086Z,17.60
2018-08-24T23:30:32.482Z,17.50
2018-08-24T23:32:59.942Z,17.60
2018-08-24T23:35:27.267Z,17.60
2018-08-24T23:37:54.603Z,17.70
2018-08-24T23:40:21.903Z,17.80
2018-08-24T23:42:49.258Z,17.80
2018-08-24T23:45:16.585Z,17.80
2018-08-24T23:47:43.945Z,17.80
2018-08-24T23:50:11.295Z,17.90
2018-08-24T23:52:39.052Z,18.10
2018-08-24T23:55:06.395Z,18.30
2018-08-24T23:57:33.788Z,18.50
